sensor_id;sensor_type;location;lat;lon;timestamp;P1;durP1;ratioP1;P2;durP2;ratioP2
43823;SDS011;29470;53.550;9.926;2023-03-22T00:02:24;18.60;;;10.20;;
43823;SDS011;29470;53.550;9.926;2023-03-22T00:07:27;15.27;;;10.00;;
43823;SDS011;29470;53.550;9.926;2023-03-22T00:12:31;17.27;;;9.88;;
43823;SDS011;29470;53.550;9.926;2023-03-22T00:17:34;18.75;;;10.75;;
43823;SDS011;29470;53.550;9.926;2023-03-22T00:22:37;19.90;;;10.30;;
43823;SDS011;29470;53.550;9.926;2023-03-22T00:27:42;19.42;;;10.63;;
43823;SDS011;29470;53.550;9.926;2023-03-22T00:32:44;18.67;;;9.85;;
43823;SDS011;29470;53.550;9.926;2023-03-22T00:37:47;20.42;;;11.10;;
43823;SDS011;29470;53.550;9.926;2023-03-22T00:42:53;21.73;;;12.45;;
43823;SDS011;29470;53.550;9.926;2023-03-22T00:47:56;18.38;;;10.95;;
43823;SDS011;29470;53.550;9.926;2023-03-22T00:52:58;22.10;;;12.40;;
43823;SDS011;29470;53.550;9.926;2023-03-22T00:58:03;21.30;;;11.88;;
43823;SDS011;29470;53.550;9.926;2023-03-22T01:03:06;19.75;;;12.05;;
43823;SDS011;29470;53.550;9.926;2023-03-22T01:08:10;22.83;;;12.40;;
43823;SDS011;29470;53.550;9.926;2023-03-22T01:13:16;18.23;;;11.43;;
43823;SDS011;29470;53.550;9.926;2023-03-22T01:18:19;19.98;;;12.07;;
43823;SDS011;29470;53.550;9.926;2023-03-22T01:23:22;23.30;;;12.82;;
43823;SDS011;29470;53.550;9.926;2023-03-22T01:28:26;22.35;;;12.70;;
43823;SDS011;29470;53.550;9.926;2023-03-22T01:33:30;21.05;;;12.18;;
43823;SDS011;29470;53.550;9.926;2023-03-22T01:38:33;21.52;;;11.82;;
43823;SDS011;29470;53.550;9.926;2023-03-22T01:43:37;21.73;;;12.40;;
43823;SDS011;29470;53.550;9.926;2023-03-22T01:48:41;21.95;;;12.27;;
43823;SDS011;29470;53.550;9.926;2023-03-22T01:53:49;23.53;;;13.37;;
43823;SDS011;29470;53.550;9.926;2023-03-22T01:58:57;21.77;;;12.93;;
43823;SDS011;29470;53.550;9.926;2023-03-22T02:04:11;20.27;;;13.32;;
43823;SDS011;29470;53.550;9.926;2023-03-22T02:09:17;19.67;;;12.07;;
43823;SDS011;29470;53.550;9.926;2023-03-22T02:14:37;21.98;;;12.32;;
43823;SDS011;29470;53.550;9.926;2023-03-22T02:20:30;22.15;;;12.57;;
43823;SDS011;29470;53.550;9.926;2023-03-22T02:26:10;20.42;;;12.63;;
43823;SDS011;29470;53.550;9.926;2023-03-22T02:31:40;20.15;;;12.13;;
43823;SDS011;29470;53.550;9.926;2023-03-22T02:42:33;18.85;;;11.70;;
43823;SDS011;29470;53.550;9.926;2023-03-22T02:47:47;16.50;;;11.03;;
43823;SDS011;29470;53.550;9.926;2023-03-22T02:52:59;18.48;;;11.52;;
43823;SDS011;29470;53.550;9.926;2023-03-22T02:58:09;23.02;;;12.45;;
43823;SDS011;29470;53.550;9.926;2023-03-22T03:03:18;18.08;;;11.60;;
43823;SDS011;29470;53.550;9.926;2023-03-22T03:08:25;20.70;;;11.30;;
43823;SDS011;29470;53.550;9.926;2023-03-22T03:13:31;16.55;;;10.82;;
43823;SDS011;29470;53.550;9.926;2023-03-22T03:18:37;22.45;;;10.95;;
43823;SDS011;29470;53.550;9.926;2023-03-22T03:23:46;19.10;;;10.80;;
43823;SDS011;29470;53.550;9.926;2023-03-22T03:28:58;17.30;;;11.45;;
43823;SDS011;29470;53.550;9.926;2023-03-22T03:34:08;20.50;;;11.35;;
43823;SDS011;29470;53.550;9.926;2023-03-22T03:39:17;17.60;;;10.20;;
43823;SDS011;29470;53.550;9.926;2023-03-22T03:44:26;18.25;;;10.75;;
43823;SDS011;29470;53.550;9.926;2023-03-22T03:49:31;18.17;;;11.10;;
43823;SDS011;29470;53.550;9.926;2023-03-22T03:54:34;19.67;;;10.25;;
43823;SDS011;29470;53.550;9.926;2023-03-22T03:59:42;17.63;;;10.02;;
43823;SDS011;29470;53.550;9.926;2023-03-22T04:04:55;18.25;;;10.10;;
43823;SDS011;29470;53.550;9.926;2023-03-22T04:09:57;18.85;;;9.90;;
43823;SDS011;29470;53.550;9.926;2023-03-22T04:15:07;16.60;;;10.03;;
43823;SDS011;29470;53.550;9.926;2023-03-22T04:20:12;16.75;;;9.45;;
43823;SDS011;29470;53.550;9.926;2023-03-22T04:25:15;17.00;;;9.45;;
43823;SDS011;29470;53.550;9.926;2023-03-22T04:30:34;21.88;;;9.75;;
43823;SDS011;29470;53.550;9.926;2023-03-22T04:35:57;15.98;;;9.00;;
43823;SDS011;29470;53.550;9.926;2023-03-22T04:41:08;15.60;;;9.20;;
43823;SDS011;29470;53.550;9.926;2023-03-22T04:46:17;16.83;;;8.98;;
43823;SDS011;29470;53.550;9.926;2023-03-22T04:51:27;14.27;;;8.95;;
43823;SDS011;29470;53.550;9.926;2023-03-22T04:56:55;17.95;;;9.75;;
43823;SDS011;29470;53.550;9.926;2023-03-22T05:02:02;14.85;;;8.95;;
43823;SDS011;29470;53.550;9.926;2023-03-22T05:07:12;16.08;;;9.07;;
43823;SDS011;29470;53.550;9.926;2023-03-22T05:12:25;16.08;;;9.70;;
43823;SDS011;29470;53.550;9.926;2023-03-22T05:17:34;18.70;;;10.00;;
43823;SDS011;29470;53.550;9.926;2023-03-22T05:22:38;14.93;;;8.80;;
43823;SDS011;29470;53.550;9.926;2023-03-22T05:27:43;17.25;;;8.90;;
43823;SDS011;29470;53.550;9.926;2023-03-22T05:33:03;13.13;;;8.27;;
43823;SDS011;29470;53.550;9.926;2023-03-22T05:38:12;15.95;;;8.30;;
43823;SDS011;29470;53.550;9.926;2023-03-22T05:43:20;14.70;;;8.02;;
43823;SDS011;29470;53.550;9.926;2023-03-22T05:48:25;15.07;;;8.35;;
43823;SDS011;29470;53.550;9.926;2023-03-22T05:53:29;16.65;;;7.90;;
43823;SDS011;29470;53.550;9.926;2023-03-22T05:58:40;13.98;;;7.93;;
43823;SDS011;29470;53.550;9.926;2023-03-22T06:03:48;12.73;;;6.68;;
43823;SDS011;29470;53.550;9.926;2023-03-22T06:09:03;13.10;;;7.22;;
43823;SDS011;29470;53.550;9.926;2023-03-22T06:14:19;11.05;;;6.90;;
43823;SDS011;29470;53.550;9.926;2023-03-22T06:19:36;15.32;;;7.13;;
43823;SDS011;29470;53.550;9.926;2023-03-22T06:24:42;12.75;;;6.43;;
43823;SDS011;29470;53.550;9.926;2023-03-22T06:29:51;15.35;;;7.65;;
43823;SDS011;29470;53.550;9.926;2023-03-22T06:34:59;11.50;;;6.50;;
43823;SDS011;29470;53.550;9.926;2023-03-22T06:40:02;10.48;;;6.03;;
43823;SDS011;29470;53.550;9.926;2023-03-22T06:45:07;13.20;;;6.05;;
43823;SDS011;29470;53.550;9.926;2023-03-22T06:50:13;12.43;;;5.90;;
43823;SDS011;29470;53.550;9.926;2023-03-22T06:55:33;12.43;;;6.55;;
43823;SDS011;29470;53.550;9.926;2023-03-22T07:00:45;11.25;;;5.60;;
43823;SDS011;29470;53.550;9.926;2023-03-22T07:05:50;11.45;;;5.50;;
43823;SDS011;29470;53.550;9.926;2023-03-22T07:10:53;16.08;;;6.90;;
43823;SDS011;29470;53.550;9.926;2023-03-22T07:15:57;12.52;;;6.13;;
43823;SDS011;29470;53.550;9.926;2023-03-22T07:21:13;11.73;;;5.70;;
43823;SDS011;29470;53.550;9.926;2023-03-22T07:26:21;9.68;;;6.10;;
43823;SDS011;29470;53.550;9.926;2023-03-22T07:31:26;11.40;;;6.57;;
43823;SDS011;29470;53.550;9.926;2023-03-22T07:36:34;10.80;;;6.72;;
43823;SDS011;29470;53.550;9.926;2023-03-22T07:41:41;13.27;;;7.30;;
43823;SDS011;29470;53.550;9.926;2023-03-22T07:47:04;16.63;;;7.25;;
43823;SDS011;29470;53.550;9.926;2023-03-22T07:52:16;16.13;;;8.20;;
43823;SDS011;29470;53.550;9.926;2023-03-22T07:57:19;14.98;;;7.65;;
43823;SDS011;29470;53.550;9.926;2023-03-22T08:02:28;13.18;;;7.97;;
43823;SDS011;29470;53.550;9.926;2023-03-22T08:07:34;13.65;;;8.30;;
43823;SDS011;29470;53.550;9.926;2023-03-22T08:12:37;14.10;;;8.05;;
43823;SDS011;29470;53.550;9.926;2023-03-22T08:17:53;15.93;;;8.27;;
43823;SDS011;29470;53.550;9.926;2023-03-22T08:23:07;19.05;;;8.70;;
43823;SDS011;29470;53.550;9.926;2023-03-22T08:28:49;15.80;;;8.65;;
43823;SDS011;29470;53.550;9.926;2023-03-22T08:33:52;15.68;;;7.78;;
43823;SDS011;29470;53.550;9.926;2023-03-22T08:38:57;16.58;;;8.27;;
43823;SDS011;29470;53.550;9.926;2023-03-22T08:44:11;13.68;;;8.00;;
43823;SDS011;29470;53.550;9.926;2023-03-22T08:49:14;12.98;;;7.30;;
43823;SDS011;29470;53.550;9.926;2023-03-22T08:54:26;13.35;;;7.28;;
43823;SDS011;29470;53.550;9.926;2023-03-22T08:59:36;10.27;;;6.53;;
43823;SDS011;29470;53.550;9.926;2023-03-22T09:05:06;32.85;;;10.75;;
43823;SDS011;29470;53.550;9.926;2023-03-22T09:10:12;11.77;;;6.72;;
43823;SDS011;29470;53.550;9.926;2023-03-22T09:15:19;15.20;;;6.63;;
43823;SDS011;29470;53.550;9.926;2023-03-22T09:20:37;12.40;;;6.20;;
43823;SDS011;29470;53.550;9.926;2023-03-22T09:25:43;8.68;;;5.50;;
43823;SDS011;29470;53.550;9.926;2023-03-22T09:30:49;10.73;;;5.30;;
43823;SDS011;29470;53.550;9.926;2023-03-22T09:35:52;13.18;;;5.70;;
43823;SDS011;29470;53.550;9.926;2023-03-22T09:40:59;21.33;;;7.10;;
43823;SDS011;29470;53.550;9.926;2023-03-22T09:46:10;10.15;;;4.95;;
43823;SDS011;29470;53.550;9.926;2023-03-22T09:56:41;14.80;;;5.93;;
43823;SDS011;29470;53.550;9.926;2023-03-22T10:01:47;13.50;;;4.90;;
43823;SDS011;29470;53.550;9.926;2023-03-22T10:06:56;11.63;;;5.03;;
43823;SDS011;29470;53.550;9.926;2023-03-22T10:12:10;9.38;;;3.63;;
43823;SDS011;29470;53.550;9.926;2023-03-22T10:17:22;9.82;;;3.50;;
43823;SDS011;29470;53.550;9.926;2023-03-22T10:22:28;7.97;;;3.53;;
43823;SDS011;29470;53.550;9.926;2023-03-22T10:27:36;6.27;;;3.57;;
43823;SDS011;29470;53.550;9.926;2023-03-22T10:32:40;7.70;;;3.20;;
43823;SDS011;29470;53.550;9.926;2023-03-22T10:37:58;6.32;;;2.92;;
43823;SDS011;29470;53.550;9.926;2023-03-22T10:43:06;5.07;;;2.50;;
43823;SDS011;29470;53.550;9.926;2023-03-22T10:48:21;9.15;;;3.28;;
43823;SDS011;29470;53.550;9.926;2023-03-22T10:53:32;6.45;;;2.75;;
43823;SDS011;29470;53.550;9.926;2023-03-22T10:58:40;8.48;;;2.97;;
43823;SDS011;29470;53.550;9.926;2023-03-22T11:03:46;7.43;;;2.88;;
43823;SDS011;29470;53.550;9.926;2023-03-22T11:08:51;9.27;;;2.80;;
43823;SDS011;29470;53.550;9.926;2023-03-22T11:14:00;6.95;;;2.80;;
43823;SDS011;29470;53.550;9.926;2023-03-22T11:19:09;12.98;;;5.95;;
43823;SDS011;29470;53.550;9.926;2023-03-22T11:24:16;9.95;;;3.15;;
43823;SDS011;29470;53.550;9.926;2023-03-22T11:29:23;8.70;;;3.00;;
43823;SDS011;29470;53.550;9.926;2023-03-22T11:34:27;4.80;;;2.38;;
43823;SDS011;29470;53.550;9.926;2023-03-22T11:39:32;4.03;;;2.53;;
43823;SDS011;29470;53.550;9.926;2023-03-22T11:44:36;7.45;;;3.03;;
43823;SDS011;29470;53.550;9.926;2023-03-22T11:49:41;8.35;;;2.95;;
43823;SDS011;29470;53.550;9.926;2023-03-22T11:59:57;7.85;;;2.80;;
43823;SDS011;29470;53.550;9.926;2023-03-22T12:05:10;6.72;;;2.85;;
43823;SDS011;29470;53.550;9.926;2023-03-22T12:10:18;6.88;;;3.30;;
43823;SDS011;29470;53.550;9.926;2023-03-22T12:15:29;7.90;;;3.47;;
43823;SDS011;29470;53.550;9.926;2023-03-22T12:20:38;5.93;;;3.70;;
43823;SDS011;29470;53.550;9.926;2023-03-22T12:30:52;9.45;;;5.20;;
43823;SDS011;29470;53.550;9.926;2023-03-22T12:35:59;8.32;;;4.20;;
43823;SDS011;29470;53.550;9.926;2023-03-22T12:41:06;7.63;;;3.65;;
43823;SDS011;29470;53.550;9.926;2023-03-22T12:46:16;5.15;;;3.33;;
43823;SDS011;29470;53.550;9.926;2023-03-22T12:51:21;9.65;;;4.10;;
43823;SDS011;29470;53.550;9.926;2023-03-22T12:56:25;7.20;;;3.92;;
43823;SDS011;29470;53.550;9.926;2023-03-22T13:01:34;10.00;;;4.57;;
43823;SDS011;29470;53.550;9.926;2023-03-22T13:06:53;8.45;;;5.15;;
43823;SDS011;29470;53.550;9.926;2023-03-22T13:17:37;10.00;;;6.57;;
43823;SDS011;29470;53.550;9.926;2023-03-22T13:22:57;10.65;;;6.60;;
43823;SDS011;29470;53.550;9.926;2023-03-22T13:28:19;10.00;;;6.80;;
43823;SDS011;29470;53.550;9.926;2023-03-22T13:33:28;11.68;;;7.28;;
43823;SDS011;29470;53.550;9.926;2023-03-22T13:38:33;10.88;;;6.75;;
43823;SDS011;29470;53.550;9.926;2023-03-22T13:43:43;12.38;;;6.93;;
43823;SDS011;29470;53.550;9.926;2023-03-22T13:53:57;9.98;;;5.93;;
43823;SDS011;29470;53.550;9.926;2023-03-22T13:59:07;8.82;;;5.25;;
43823;SDS011;29470;53.550;9.926;2023-03-22T14:04:14;7.57;;;4.75;;
43823;SDS011;29470;53.550;9.926;2023-03-22T14:09:24;10.90;;;4.70;;
43823;SDS011;29470;53.550;9.926;2023-03-22T14:14:31;9.68;;;4.15;;
43823;SDS011;29470;53.550;9.926;2023-03-22T14:19:39;6.35;;;3.83;;
43823;SDS011;29470;53.550;9.926;2023-03-22T14:24:43;7.57;;;3.50;;
43823;SDS011;29470;53.550;9.926;2023-03-22T14:29:47;8.52;;;3.70;;
43823;SDS011;29470;53.550;9.926;2023-03-22T14:34:51;6.93;;;3.60;;
43823;SDS011;29470;53.550;9.926;2023-03-22T14:39:59;6.95;;;3.33;;
43823;SDS011;29470;53.550;9.926;2023-03-22T14:45:04;6.65;;;4.00;;
43823;SDS011;29470;53.550;9.926;2023-03-22T14:50:09;7.93;;;4.43;;
43823;SDS011;29470;53.550;9.926;2023-03-22T14:55:16;8.70;;;5.35;;
43823;SDS011;29470;53.550;9.926;2023-03-22T15:00:20;8.82;;;5.03;;
43823;SDS011;29470;53.550;9.926;2023-03-22T15:05:27;9.82;;;5.30;;
43823;SDS011;29470;53.550;9.926;2023-03-22T15:10:35;9.02;;;5.20;;
43823;SDS011;29470;53.550;9.926;2023-03-22T15:15:39;10.20;;;4.95;;
43823;SDS011;29470;53.550;9.926;2023-03-22T15:20:44;8.32;;;5.05;;
43823;SDS011;29470;53.550;9.926;2023-03-22T15:25:47;9.00;;;4.82;;
43823;SDS011;29470;53.550;9.926;2023-03-22T15:30:50;6.45;;;4.88;;
43823;SDS011;29470;53.550;9.926;2023-03-22T15:35:55;11.13;;;5.50;;
43823;SDS011;29470;53.550;9.926;2023-03-22T15:40:59;8.32;;;4.68;;
43823;SDS011;29470;53.550;9.926;2023-03-22T15:51:26;9.40;;;5.32;;
43823;SDS011;29470;53.550;9.926;2023-03-22T15:56:30;6.93;;;5.05;;
43823;SDS011;29470;53.550;9.926;2023-03-22T16:01:36;11.95;;;6.40;;
43823;SDS011;29470;53.550;9.926;2023-03-22T16:06:44;10.15;;;5.85;;
43823;SDS011;29470;53.550;9.926;2023-03-22T16:11:46;9.02;;;5.47;;
43823;SDS011;29470;53.550;9.926;2023-03-22T16:16:48;10.60;;;6.53;;
43823;SDS011;29470;53.550;9.926;2023-03-22T16:21:51;9.88;;;7.18;;
43823;SDS011;29470;53.550;9.926;2023-03-22T16:26:53;14.23;;;8.23;;
43823;SDS011;29470;53.550;9.926;2023-03-22T16:31:55;12.43;;;6.63;;
43823;SDS011;29470;53.550;9.926;2023-03-22T16:36:58;9.65;;;6.53;;
43823;SDS011;29470;53.550;9.926;2023-03-22T16:42:00;10.93;;;6.70;;
43823;SDS011;29470;53.550;9.926;2023-03-22T16:47:01;14.57;;;8.68;;
43823;SDS011;29470;53.550;9.926;2023-03-22T16:52:05;9.07;;;6.13;;
43823;SDS011;29470;53.550;9.926;2023-03-22T16:57:10;8.27;;;6.18;;
43823;SDS011;29470;53.550;9.926;2023-03-22T17:02:14;11.02;;;6.65;;
43823;SDS011;29470;53.550;9.926;2023-03-22T17:07:21;9.90;;;7.07;;
43823;SDS011;29470;53.550;9.926;2023-03-22T17:12:25;11.88;;;7.45;;
43823;SDS011;29470;53.550;9.926;2023-03-22T17:17:29;13.23;;;7.30;;
43823;SDS011;29470;53.550;9.926;2023-03-22T17:22:32;10.88;;;7.30;;
43823;SDS011;29470;53.550;9.926;2023-03-22T17:27:34;11.82;;;6.75;;
43823;SDS011;29470;53.550;9.926;2023-03-22T17:32:36;12.07;;;8.32;;
43823;SDS011;29470;53.550;9.926;2023-03-22T17:37:39;12.80;;;7.78;;
43823;SDS011;29470;53.550;9.926;2023-03-22T17:42:41;11.43;;;7.80;;
43823;SDS011;29470;53.550;9.926;2023-03-22T17:47:43;15.60;;;10.00;;
43823;SDS011;29470;53.550;9.926;2023-03-22T17:52:46;8.15;;;6.53;;
43823;SDS011;29470;53.550;9.926;2023-03-22T17:57:48;10.05;;;7.63;;
43823;SDS011;29470;53.550;9.926;2023-03-22T18:02:51;13.23;;;6.90;;
43823;SDS011;29470;53.550;9.926;2023-03-22T18:07:55;10.38;;;6.15;;
43823;SDS011;29470;53.550;9.926;2023-03-22T18:12:57;29.73;;;17.83;;
43823;SDS011;29470;53.550;9.926;2023-03-22T18:17:59;24.25;;;13.85;;
43823;SDS011;29470;53.550;9.926;2023-03-22T18:23:02;9.80;;;5.97;;
43823;SDS011;29470;53.550;9.926;2023-03-22T18:28:04;10.05;;;6.35;;
43823;SDS011;29470;53.550;9.926;2023-03-22T18:33:06;8.55;;;5.22;;
43823;SDS011;29470;53.550;9.926;2023-03-22T18:38:09;10.30;;;5.40;;
43823;SDS011;29470;53.550;9.926;2023-03-22T18:43:12;11.63;;;6.80;;
43823;SDS011;29470;53.550;9.926;2023-03-22T18:48:13;11.23;;;4.90;;
43823;SDS011;29470;53.550;9.926;2023-03-22T18:53:17;12.13;;;5.03;;
43823;SDS011;29470;53.550;9.926;2023-03-22T18:58:19;13.07;;;4.82;;
43823;SDS011;29470;53.550;9.926;2023-03-22T19:03:21;7.72;;;4.40;;
43823;SDS011;29470;53.550;9.926;2023-03-22T19:08:25;8.07;;;4.43;;
43823;SDS011;29470;53.550;9.926;2023-03-22T19:13:26;7.65;;;4.75;;
43823;SDS011;29470;53.550;9.926;2023-03-22T19:18:28;9.40;;;4.95;;
43823;SDS011;29470;53.550;9.926;2023-03-22T19:23:32;11.93;;;8.82;;
43823;SDS011;29470;53.550;9.926;2023-03-22T19:28:34;11.00;;;5.30;;
43823;SDS011;29470;53.550;9.926;2023-03-22T19:33:36;9.57;;;5.32;;
43823;SDS011;29470;53.550;9.926;2023-03-22T19:38:39;7.13;;;4.60;;
43823;SDS011;29470;53.550;9.926;2023-03-22T19:43:41;14.55;;;7.03;;
43823;SDS011;29470;53.550;9.926;2023-03-22T19:48:43;14.32;;;6.22;;
43823;SDS011;29470;53.550;9.926;2023-03-22T19:53:47;9.07;;;4.30;;
43823;SDS011;29470;53.550;9.926;2023-03-22T19:58:50;8.48;;;4.55;;
43823;SDS011;29470;53.550;9.926;2023-03-22T20:03:51;7.65;;;3.65;;
43823;SDS011;29470;53.550;9.926;2023-03-22T20:08:55;8.98;;;4.03;;
43823;SDS011;29470;53.550;9.926;2023-03-22T20:13:57;9.23;;;3.78;;
43823;SDS011;29470;53.550;9.926;2023-03-22T20:19:02;7.95;;;3.92;;
43823;SDS011;29470;53.550;9.926;2023-03-22T20:24:06;6.97;;;3.42;;
43823;SDS011;29470;53.550;9.926;2023-03-22T20:29:08;6.57;;;3.38;;
43823;SDS011;29470;53.550;9.926;2023-03-22T20:34:10;7.40;;;3.55;;
43823;SDS011;29470;53.550;9.926;2023-03-22T20:39:13;6.88;;;3.70;;
43823;SDS011;29470;53.550;9.926;2023-03-22T20:44:15;6.70;;;4.05;;
43823;SDS011;29470;53.550;9.926;2023-03-22T20:49:17;7.20;;;4.43;;
43823;SDS011;29470;53.550;9.926;2023-03-22T20:54:20;7.45;;;3.75;;
43823;SDS011;29470;53.550;9.926;2023-03-22T20:59:22;5.82;;;3.83;;
43823;SDS011;29470;53.550;9.926;2023-03-22T21:04:24;7.47;;;4.03;;
43823;SDS011;29470;53.550;9.926;2023-03-22T21:09:27;6.88;;;3.90;;
43823;SDS011;29470;53.550;9.926;2023-03-22T21:14:29;6.75;;;3.65;;
43823;SDS011;29470;53.550;9.926;2023-03-22T21:19:31;6.53;;;4.13;;
43823;SDS011;29470;53.550;9.926;2023-03-22T21:24:34;6.72;;;4.38;;
43823;SDS011;29470;53.550;9.926;2023-03-22T21:29:36;10.32;;;5.20;;
43823;SDS011;29470;53.550;9.926;2023-03-22T21:34:38;8.02;;;4.40;;
43823;SDS011;29470;53.550;9.926;2023-03-22T21:39:41;8.02;;;4.65;;
43823;SDS011;29470;53.550;9.926;2023-03-22T21:44:43;9.45;;;4.90;;
43823;SDS011;29470;53.550;9.926;2023-03-22T21:49:46;13.30;;;5.47;;
43823;SDS011;29470;53.550;9.926;2023-03-22T21:54:53;8.88;;;5.30;;
43823;SDS011;29470;53.550;9.926;2023-03-22T21:59:57;8.25;;;4.47;;
43823;SDS011;29470;53.550;9.926;2023-03-22T22:04:59;9.55;;;5.00;;
43823;SDS011;29470;53.550;9.926;2023-03-22T22:10:05;9.57;;;4.20;;
43823;SDS011;29470;53.550;9.926;2023-03-22T22:15:07;7.63;;;4.55;;
43823;SDS011;29470;53.550;9.926;2023-03-22T22:20:10;8.52;;;4.20;;
43823;SDS011;29470;53.550;9.926;2023-03-22T22:25:15;9.57;;;4.55;;
43823;SDS011;29470;53.550;9.926;2023-03-22T22:30:18;5.88;;;3.95;;
43823;SDS011;29470;53.550;9.926;2023-03-22T22:35:19;8.07;;;4.40;;
43823;SDS011;29470;53.550;9.926;2023-03-22T22:40:22;10.02;;;4.00;;
43823;SDS011;29470;53.550;9.926;2023-03-22T22:45:24;10.15;;;4.18;;
43823;SDS011;29470;53.550;9.926;2023-03-22T22:50:26;6.68;;;3.65;;
43823;SDS011;29470;53.550;9.926;2023-03-22T22:55:29;7.03;;;4.25;;
43823;SDS011;29470;53.550;9.926;2023-03-22T23:00:31;8.90;;;4.30;;
43823;SDS011;29470;53.550;9.926;2023-03-22T23:05:33;7.78;;;4.68;;
43823;SDS011;29470;53.550;9.926;2023-03-22T23:10:37;10.68;;;4.97;;
43823;SDS011;29470;53.550;9.926;2023-03-22T23:15:46;9.10;;;4.40;;
43823;SDS011;29470;53.550;9.926;2023-03-22T23:20:49;10.95;;;4.93;;
43823;SDS011;29470;53.550;9.926;2023-03-22T23:25:52;6.82;;;4.00;;
43823;SDS011;29470;53.550;9.926;2023-03-22T23:30:55;9.25;;;4.50;;
43823;SDS011;29470;53.550;9.926;2023-03-22T23:36:02;9.70;;;4.55;;
43823;SDS011;29470;53.550;9.926;2023-03-22T23:41:10;9.65;;;4.60;;
43823;SDS011;29470;53.550;9.926;2023-03-22T23:46:13;13.25;;;5.65;;
43823;SDS011;29470;53.550;9.926;2023-03-22T23:51:16;11.23;;;5.90;;
43823;SDS011;29470;53.550;9.926;2023-03-22T23:56:21;9.80;;;5.75;;
